Detall de PIREP

Printer-friendly versionPDF version

[2008/09/23 20:28:00]
Flight IATA:CT3124
Pilot Number:011
Company ICAO:CAT
Aircraft Type:F28/A
PAX:85
Departing Airport: LFMP
Destination Airport: LEVC
Alternate Airport:LEPA
Online: VATSIM
Route:BGR UN975 BCN UM985 SOPET
Flight Level:FL310
No Slew and time accel
No pause
Crash detect
Detect pilot in Cockpit between each 30 and 45 minutes
20:28 Zero fuel Weight: 60286 Lbs, Fuel Weight: 9129 Lbs
20:28 VATSIM:LFMP 232000Z AUTO VRB02KT 9999NDV NSC 15/10 Q1014
20:28 VATSIM:LEVC 232000Z 02007KT 350V060 9999 -SHRA FEW020CB SCT030 BKN060 18/15 Q1013 NOSIG
20:29 Parking Brakes off
20:46 Take-off
20:46 Take off Weight: 68745 Lbs
20:46 Wind: 243 @ 003 Knots Heading: 149
20:46 POS N42 44 38 E002 52 12
20:46 Gear Up: 146 Knots
20:46 Flaps:2 at 146 Knots
20:46 Flaps:1 at 189 Knots
20:46 Flaps:0 at 198 Knots
21:01 Wind:330@008 Knots Heading: 230 Ground Speed: 426
Knots Altitude 26259 ft
21:07 TOC
21:07 Fuel Weight: 5846 Lb
21:13 TOD
21:13 Fuel Weight: 5402 Lb
21:16 Wind:352@014 Knots Heading: 227 Ground Speed: 438 Knots Altitude 26942 ft
21:31 Wind:010@008 Knots Heading: 258 Ground Speed: 238 Knots Altitude 5003 ft
21:35 Flaps:1 at 218 Knots
21:36 Flaps:2 at 204 Knots
21:37 Flaps:3 at 184 Knots
21:37 Flaps:4 at 165 Knots
21:37 Gear Down: 164 Knots
21:38 Flaps:5 at 145 Knots
21:40 TouchDown:Rate -306 ft/min Speed: 112 Knots
21:40 VATSIM:LEVC 232130Z 01004KT 340V050 9999 -RA FEW025 BKN040 19/15 Q1013 NOSIG
21:40 Land
21:40 Wind:340@004 Knots
21:40 Heading: 120
21:40 Flight Duration: 00:54
21:40 Landing Weight: 64479 Lbs
21:40 POS N39 29 09 W000 28 20
21:46 Parking brakes on
21:46 Block to Block Duration: 01:17
21:46 Final Fuel: 4014 Lbls
21:46 Spent Fuel: 5114 Lbls
21:46 Flight Length: 82 NM
21:4
6 TOD Land Length: 21 NM

Exportar CSV

Powered by Drupal - Modified by Danger4k